Time;durP1;ratioP1;P1;durP2;ratioP2;P2;SDS_P1;SDS_P2;PMS_P1;PMS_P2;Temp;Humidity;BMP_temperature;BMP_pressure;BME280_temperature;BME280_humidity;BME280_pressure;Samples;Min_cycle;Max_cycle;Signal;HPM_P1;HPM_P2
2022/01/13 00:00:32;;;;;;;85.07;34.20;;;4.50;63.30;;;;;;4957399;29;20402;-76
2022/01/13 00:02:57;;;;;;;90.73;32.57;;;4.40;63.90;;;;;;4959765;28;20418;-76
2022/01/13 00:05:28;;;;;;;83.15;33.90;;;4.50;64.50;;;;;;4957072;29;20776;-75
2022/01/13 00:07:55;;;;;;;88.82;33.75;;;4.50;63.40;;;;;;4956932;29;20899;-76
2022/01/13 00:10:21;;;;;;;87.60;33.80;;;4.50;63.80;;;;;;4958015;28;20405;-75
2022/01/13 00:12:47;;;;;;;81.05;31.20;;;4.50;64.00;;;;;;4960059;29;20807;-75
2022/01/13 00:17:57;;;;;;;87.25;33.45;;;4.50;63.30;;;;;;4966470;29;20481;-74
2022/01/13 00:23:40;;;;;;;90.75;33.78;;;4.50;63.90;;;;;;4955518;29;20820;-75
2022/01/13 00:25:38;;;;;;;83.93;33.85;;;4.50;63.40;;;;;;4954453;28;20473;-74
2022/01/13 00:28:13;;;;;;;88.80;35.05;;;4.50;63.40;;;;;;4955331;28;20402;-74
2022/01/13 00:30:39;;;;;;;92.25;35.28;;;4.60;62.90;;;;;;4955010;29;20762;-75
2022/01/13 00:33:05;;;;;;;85.20;34.77;;;4.50;63.10;;;;;;4954832;29;20416;-74
2022/01/13 00:35:30;;;;;;;82.72;32.70;;;4.60;63.10;;;;;;4954822;29;20394;-73
2022/01/13 00:37:56;;;;;;;92.53;34.00;;;4.60;61.20;;;;;;4953059;29;20595;-75
2022/01/13 00:40:21;;;;;;;96.18;35.25;;;4.50;62.10;;;;;;4957208;28;20420;-75
2022/01/13 00:42:47;;;;;;;87.40;34.78;;;4.50;62.70;;;;;;4969840;29;20397;-74
2022/01/13 00:45:14;;;;;;;84.97;34.50;;;4.50;63.40;;;;;;4960382;29;20394;-74
2022/01/13 00:47:41;;;;;;;92.88;35.50;;;4.50;64.70;;;;;;4954387;29;20477;-74
2022/01/13 00:50:07;;;;;;;93.85;35.67;;;4.60;64.20;;;;;;4955450;29;20779;-74
2022/01/13 00:52:33;;;;;;;83.35;35.08;;;4.50;63.40;;;;;;4955319;28;20456;-74
2022/01/13 00:55:04;;;;;;;90.30;36.33;;;4.50;64.20;;;;;;4967278;29;20398;-74
2022/01/13 00:57:31;;;;;;;99.28;37.85;;;4.50;64.40;;;;;;4966782;28;20406;-74
2022/01/13 00:59:58;;;;;;;92.45;36.10;;;4.40;64.90;;;;;;4964912;29;20393;-74
2022/01/13 01:02:24;;;;;;;103.15;37.17;;;4.50;64.80;;;;;;4958999;29;20390;-76
2022/01/13 01:04:49;;;;;;;95.37;36.40;;;4.60;63.70;;;;;;4964248;28;20404;-74
2022/01/13 01:07:15;;;;;;;104.33;38.50;;;4.60;62.30;;;;;;4963302;28;20424;-76
2022/01/13 01:09:48;;;;;;;92.40;36.83;;;4.50;62.80;;;;;;4964386;28;20472;-76
2022/01/13 01:12:14;;;;;;;101.45;39.85;;;4.50;62.50;;;;;;4967675;28;20456;-74
2022/01/13 01:14:46;;;;;;;101.25;39.67;;;4.40;63.60;;;;;;4963299;29;20462;-75
2022/01/13 01:17:15;;;;;;;102.73;40.17;;;4.50;63.80;;;;;;4966927;28;20390;-74
2022/01/13 01:19:47;;;;;;;104.85;39.58;;;4.50;63.00;;;;;;4962900;29;20397;-74
2022/01/13 01:27:35;;;;;;;103.00;39.60;;;4.50;62.80;;;;;;4953684;29;20412;-76
2022/01/13 01:30:11;;;;;;;103.35;38.72;;;4.40;63.20;;;;;;4953703;29;20392;-74
2022/01/13 01:32:38;;;;;;;101.07;38.50;;;4.50;62.00;;;;;;4953289;29;20520;-75
2022/01/13 01:35:12;;;;;;;107.85;39.72;;;4.60;61.10;;;;;;4952436;28;20437;-75
2022/01/13 01:37:39;;;;;;;99.85;38.95;;;4.50;61.50;;;;;;4953356;29;20918;-74
2022/01/13 01:40:06;;;;;;;95.40;37.47;;;4.50;60.60;;;;;;4953012;28;20390;-74
2022/01/13 01:42:32;;;;;;;105.43;40.73;;;4.40;61.80;;;;;;4953717;29;20828;-75
2022/01/13 01:44:59;;;;;;;107.35;41.55;;;4.40;63.20;;;;;;4949564;29;20506;-75
2022/01/13 01:47:30;;;;;;;106.20;40.15;;;4.40;62.90;;;;;;4953200;28;20436;-75
2022/01/13 01:49:59;;;;;;;107.93;38.97;;;4.40;63.30;;;;;;4953131;28;20402;-76
2022/01/13 01:52:26;;;;;;;94.17;37.30;;;4.40;63.10;;;;;;4953149;29;20426;-74
2022/01/13 01:54:52;;;;;;;107.75;41.53;;;4.40;62.40;;;;;;4971253;28;20523;-75
2022/01/13 01:57:22;;;;;;;101.80;41.50;;;4.30;63.40;;;;;;4973009;28;20443;-75
2022/01/13 01:59:48;;;;;;;109.63;40.80;;;4.30;64.20;;;;;;4971448;28;20416;-76
2022/01/13 02:02:15;;;;;;;105.00;40.08;;;4.30;64.00;;;;;;4951918;28;20417;-76
2022/01/13 02:04:41;;;;;;;109.23;39.50;;;4.30;64.00;;;;;;4952201;29;20671;-79
2022/01/13 02:07:08;;;;;;;105.35;39.80;;;4.30;64.10;;;;;;4952641;29;20405;-75
2022/01/13 02:09:36;;;;;;;100.40;40.10;;;4.30;64.50;;;;;;4954470;28;20879;-76
2022/01/13 02:12:07;;;;;;;105.00;40.20;;;4.30;64.60;;;;;;4952934;29;20929;-74
2022/01/13 02:14:36;;;;;;;102.88;40.92;;;4.20;65.20;;;;;;4953653;29;20394;-75
2022/01/13 02:17:08;;;;;;;99.73;41.40;;;4.20;65.70;;;;;;4951542;29;20402;-74
2022/01/13 02:19:40;;;;;;;106.35;45.28;;;4.30;64.80;;;;;;4961373;28;20485;-74
2022/01/13 02:22:06;;;;;;;99.63;41.35;;;4.30;63.80;;;;;;4952852;29;20402;-76
2022/01/13 02:24:32;;;;;;;111.55;44.20;;;4.30;63.40;;;;;;4953688;29;20456;-75
2022/01/13 02:26:58;;;;;;;102.20;42.72;;;4.30;64.00;;;;;;4953260;28;20398;-75
2022/01/13 02:29:24;;;;;;;107.78;44.00;;;4.20;65.10;;;;;;4953181;29;20437;-74
2022/01/13 02:31:51;;;;;;;110.93;43.03;;;4.30;64.30;;;;;;4953252;29;20468;-73
2022/01/13 02:34:17;;;;;;;103.40;43.87;;;4.30;63.20;;;;;;4953672;28;20400;-74
2022/01/13 02:36:44;;;;;;;104.38;44.13;;;4.20;64.00;;;;;;4955763;29;20390;-76
2022/01/13 02:39:10;;;;;;;105.25;45.25;;;4.20;64.80;;;;;;4954250;29;20390;-74
2022/01/13 02:41:35;;;;;;;110.07;44.70;;;4.30;64.60;;;;;;4951600;28;20457;-74
2022/01/13 02:44:02;;;;;;;103.70;43.30;;;4.40;63.90;;;;;;4952792;29;20405;-75
2022/01/13 02:46:56;;;;;;;107.10;45.53;;;4.50;62.30;;;;;;4952933;29;20815;-74
2022/01/13 02:49:22;;;;;;;115.50;46.97;;;4.40;63.00;;;;;;4933860;29;20455;-73
2022/01/13 02:51:49;;;;;;;107.82;45.33;;;4.30;64.40;;;;;;4936013;29;20443;-74
2022/01/13 02:54:15;;;;;;;118.38;48.25;;;4.30;65.90;;;;;;4963126;28;20416;-75
2022/01/13 02:56:43;;;;;;;118.72;47.28;;;4.30;66.20;;;;;;4976375;28;20783;-75
2022/01/13 02:59:09;;;;;;;118.80;48.25;;;4.30;65.90;;;;;;4966410;29;20398;-74
2022/01/13 03:01:35;;;;;;;111.40;47.07;;;4.30;66.40;;;;;;4963446;28;20402;-74
2022/01/13 03:04:06;;;;;;;106.70;46.50;;;4.30;64.90;;;;;;4968809;28;20520;-74
2022/01/13 03:06:35;;;;;;;114.95;47.17;;;4.40;64.40;;;;;;4970347;28;20402;-75
2022/01/13 03:09:02;;;;;;;109.95;47.95;;;4.30;64.10;;;;;;4958793;28;20455;-75
2022/01/13 03:11:33;;;;;;;103.15;45.33;;;4.40;63.70;;;;;;4957886;29;20903;-74
2022/01/13 03:13:59;;;;;;;106.22;46.10;;;4.40;62.90;;;;;;4964009;29;20448;-75
2022/01/13 03:16:24;;;;;;;117.47;46.73;;;4.30;63.90;;;;;;4955912;28;20457;-73
2022/01/13 03:18:51;;;;;;;112.23;45.80;;;4.30;64.60;;;;;;4956213;28;20394;-74
2022/01/13 03:21:17;;;;;;;108.40;46.20;;;4.20;65.10;;;;;;4957356;29;20401;-73
2022/01/13 03:23:43;;;;;;;106.68;46.33;;;4.20;65.80;;;;;;4955753;29;20417;-74
2022/01/13 03:26:08;;;;;;;106.70;45.53;;;4.30;63.90;;;;;;4956890;29;20421;-75
2022/01/13 03:28:51;;;;;;;106.65;45.80;;;4.30;64.80;;;;;;4962901;29;20405;-75
2022/01/13 03:31:20;;;;;;;102.23;44.77;;;4.20;64.90;;;;;;4963847;29;20494;-75
2022/01/13 03:33:46;;;;;;;106.43;46.83;;;4.30;65.10;;;;;;4955929;29;20417;-72
2022/01/13 03:36:13;;;;;;;106.20;45.63;;;4.30;64.70;;;;;;4954537;28;20466;-73
2022/01/13 03:38:39;;;;;;;106.93;45.70;;;4.20;63.10;;;;;;4954806;29;20880;-72
2022/01/13 03:41:05;;;;;;;115.40;48.20;;;4.10;64.10;;;;;;4955475;29;20441;-73
2022/01/13 03:43:31;;;;;;;115.10;48.93;;;4.10;64.60;;;;;;4955796;29;20452;-73
2022/01/13 03:45:57;;;;;;;114.47;48.83;;;4.10;65.30;;;;;;4958314;29;20402;-73
2022/01/13 03:48:23;;;;;;;110.90;48.75;;;4.00;65.40;;;;;;4959367;28;20401;-72
2022/01/13 03:50:48;;;;;;;112.13;48.55;;;4.00;66.50;;;;;;4958366;29;20741;-72
2022/01/13 03:53:26;;;;;;;114.83;48.47;;;4.10;66.40;;;;;;4962864;28;20420;-73
2022/01/13 03:55:55;;;;;;;104.82;47.55;;;4.00;66.20;;;;;;4975248;28;20793;-71
2022/01/13 03:58:56;;;;;;;104.55;48.33;;;4.00;66.10;;;;;;4957322;28;20406;-72
2022/01/13 04:02:07;;;;;;;111.68;48.63;;;4.20;65.60;;;;;;4957424;29;20397;-71
2022/01/13 04:04:35;;;;;;;113.32;48.85;;;4.10;65.70;;;;;;4917685;29;20402;-72
2022/01/13 04:07:07;;;;;;;107.95;49.40;;;4.10;66.10;;;;;;4916897;29;20401;-72
2022/01/13 04:09:33;;;;;;;112.10;48.88;;;4.00;67.40;;;;;;4940365;29;20385;-73
2022/01/13 04:12:03;;;;;;;115.78;49.78;;;4.00;67.10;;;;;;4953535;28;20503;-73
2022/01/13 04:14:37;;;;;;;108.07;47.28;;;4.00;67.10;;;;;;4952691;29;20545;-73
2022/01/13 04:17:03;;;;;;;109.85;46.83;;;4.10;66.60;;;;;;4953486;29;20469;-74
2022/01/13 04:19:29;;;;;;;107.93;47.28;;;4.10;64.60;;;;;;4955282;28;20740;-71
2022/01/13 04:21:54;;;;;;;105.75;47.72;;;4.10;64.20;;;;;;4954644;28;20412;-71
2022/01/13 04:24:20;;;;;;;103.57;44.58;;;4.10;64.10;;;;;;4956376;29;20819;-73
2022/01/13 04:26:46;;;;;;;102.33;45.33;;;4.10;64.20;;;;;;4955142;29;20881;-74
2022/01/13 04:31:42;;;;;;;108.40;45.67;;;4.10;63.50;;;;;;4953370;29;20402;-72
2022/01/13 04:34:08;;;;;;;111.38;47.72;;;4.10;64.10;;;;;;4953543;28;20787;-72
2022/01/13 04:36:35;;;;;;;105.55;46.13;;;4.00;64.50;;;;;;4954322;29;20500;-72
2022/01/13 04:39:01;;;;;;;122.32;49.30;;;4.00;65.40;;;;;;4954597;29;20477;-72
2022/01/13 04:41:45;;;;;;;115.68;48.42;;;4.00;67.20;;;;;;4954011;28;20815;-71
2022/01/13 04:44:19;;;;;;;113.75;47.60;;;4.00;65.70;;;;;;4953841;28;20410;-73
2022/01/13 04:46:45;;;;;;;125.82;49.85;;;3.90;66.40;;;;;;4953213;29;20464;-71
2022/01/13 04:49:12;;;;;;;117.78;49.78;;;3.90;66.80;;;;;;4954362;29;20390;-73
2022/01/13 04:51:39;;;;;;;115.10;49.40;;;3.90;66.90;;;;;;4952440;28;20386;-71
2022/01/13 04:54:05;;;;;;;114.25;49.10;;;3.90;67.30;;;;;;4953706;29;20412;-71
2022/01/13 04:56:39;;;;;;;128.55;47.50;;;4.00;67.00;;;;;;4954176;28;20394;-71
2022/01/13 04:59:06;;;;;;;118.63;47.58;;;4.00;65.60;;;;;;4953869;28;20807;-73
2022/01/13 05:01:32;;;;;;;117.57;46.28;;;3.90;66.60;;;;;;4953704;28;20485;-71
2022/01/13 05:03:58;;;;;;;114.00;47.73;;;3.90;67.20;;;;;;4954085;29;20402;-73
2022/01/13 05:06:23;;;;;;;119.88;49.15;;;3.80;67.50;;;;;;4953739;28;20386;-72
2022/01/13 05:08:49;;;;;;;125.50;49.70;;;3.80;68.20;;;;;;4954863;28;20386;-73
2022/01/13 05:11:17;;;;;;;132.32;49.50;;;3.80;68.90;;;;;;4952137;29;20433;-71
2022/01/13 05:13:43;;;;;;;135.63;52.20;;;3.70;69.50;;;;;;4954041;28;20425;-73
2022/01/13 05:16:17;;;;;;;127.03;48.95;;;3.80;69.70;;;;;;4953721;29;20390;-72
2022/01/13 05:18:53;;;;;;;117.18;49.20;;;3.80;68.00;;;;;;4952724;28;20394;-72
2022/01/13 05:21:23;;;;;;;129.20;48.78;;;3.80;68.80;;;;;;4965302;28;20449;-75
2022/01/13 05:23:49;;;;;;;128.27;50.20;;;3.80;70.10;;;;;;4954136;28;20751;-72
2022/01/13 05:26:15;;;;;;;123.67;49.37;;;3.70;70.90;;;;;;4953940;29;20477;-73
2022/01/13 05:28:41;;;;;;;114.93;47.30;;;3.70;70.80;;;;;;4953867;28;20995;-74
2022/01/13 05:31:08;;;;;;;127.38;48.40;;;3.70;71.20;;;;;;4953468;29;20437;-73
2022/01/13 05:33:33;;;;;;;125.82;48.88;;;3.70;71.10;;;;;;4952149;28;20939;-74
2022/01/13 05:36:00;;;;;;;123.82;48.35;;;3.60;72.30;;;;;;4955277;29;20389;-73
2022/01/13 05:38:27;;;;;;;124.57;47.28;;;3.60;74.00;;;;;;4968356;29;20402;-73
2022/01/13 05:40:53;;;;;;;122.30;48.83;;;3.60;74.80;;;;;;4970933;29;20465;-73
2022/01/13 05:43:19;;;;;;;124.53;48.05;;;3.70;73.60;;;;;;4958391;29;20394;-75
2022/01/13 05:45:45;;;;;;;119.45;47.00;;;3.70;72.70;;;;;;4959545;29;20405;-75
2022/01/13 05:48:10;;;;;;;123.60;47.00;;;3.70;72.20;;;;;;4957959;29;20425;-74
2022/01/13 05:50:36;;;;;;;123.50;47.67;;;3.70;70.40;;;;;;4959019;29;20414;-74
2022/01/13 05:53:02;;;;;;;125.87;48.10;;;3.70;70.40;;;;;;4971975;28;20417;-74
2022/01/13 05:55:28;;;;;;;117.13;47.40;;;3.80;70.40;;;;;;4971682;28;20409;-74
2022/01/13 05:57:54;;;;;;;112.30;45.70;;;3.70;70.10;;;;;;4973527;28;20402;-75
2022/01/13 06:00:21;;;;;;;114.13;45.40;;;3.70;70.90;;;;;;4954992;28;20898;-73
2022/01/13 06:02:47;;;;;;;124.13;48.30;;;3.80;69.60;;;;;;4949149;29;20405;-74
2022/01/13 06:05:13;;;;;;;113.97;44.47;;;3.80;71.10;;;;;;4935688;29;20865;-74
2022/01/13 06:07:39;;;;;;;113.65;45.85;;;4.10;66.90;;;;;;4953320;29;20824;-74
2022/01/13 06:10:08;;;;;;;115.60;46.27;;;3.90;66.40;;;;;;4954147;28;20497;-75
2022/01/13 06:12:37;;;;;;;120.22;46.85;;;3.80;68.10;;;;;;4953417;28;20417;-73
2022/01/13 06:15:14;;;;;;;124.20;48.08;;;3.70;69.50;;;;;;4955602;28;20471;-75
2022/01/13 06:17:41;;;;;;;116.78;44.95;;;3.70;70.00;;;;;;4951458;29;20418;-74
2022/01/13 06:20:09;;;;;;;129.35;48.45;;;3.70;71.40;;;;;;4952342;29;20819;-73
2022/01/13 06:22:36;;;;;;;122.90;47.63;;;3.60;72.00;;;;;;4952987;29;20480;-74
2022/01/13 06:25:02;;;;;;;118.90;46.38;;;3.70;71.30;;;;;;4953642;29;20390;-74
2022/01/13 06:27:28;;;;;;;129.55;48.33;;;3.60;71.60;;;;;;4955906;28;20401;-73
2022/01/13 06:29:53;;;;;;;128.02;48.35;;;3.50;72.10;;;;;;4956991;29;20414;-74
2022/01/13 06:32:20;;;;;;;131.70;48.83;;;3.60;72.20;;;;;;4955852;29;20420;-73
2022/01/13 06:34:45;;;;;;;126.20;50.97;;;3.60;72.80;;;;;;4956837;29;20475;-73
2022/01/13 06:37:11;;;;;;;129.57;48.03;;;3.60;72.70;;;;;;4958016;28;20394;-75
2022/01/13 06:39:37;;;;;;;123.38;49.10;;;3.80;71.70;;;;;;4960034;29;20425;-74
2022/01/13 06:42:03;;;;;;;125.03;48.80;;;3.70;72.10;;;;;;4962526;29;20394;-73
2022/01/13 06:44:28;;;;;;;129.00;47.13;;;3.80;70.90;;;;;;4960187;29;20461;-74
2022/01/13 06:46:54;;;;;;;129.50;49.73;;;3.70;71.20;;;;;;4955457;29;20409;-74
2022/01/13 06:49:20;;;;;;;134.47;50.53;;;3.70;71.70;;;;;;4955572;28;20402;-73
2022/01/13 06:51:46;;;;;;;125.35;49.35;;;3.70;71.80;;;;;;4956373;29;20402;-72
2022/01/13 06:54:11;;;;;;;118.30;45.80;;;3.70;70.90;;;;;;4968591;28;20462;-72
2022/01/13 06:56:37;;;;;;;122.60;48.13;;;3.70;70.90;;;;;;4975752;28;20392;-73
2022/01/13 06:59:09;;;;;;;123.90;47.37;;;3.70;69.70;;;;;;4960732;28;20389;-74
2022/01/13 07:01:35;;;;;;;122.97;48.22;;;3.70;70.10;;;;;;4966441;29;20420;-73
2022/01/13 07:04:00;;;;;;;123.70;46.78;;;3.60;70.40;;;;;;4963903;29;20402;-73
2022/01/13 07:06:26;;;;;;;132.20;48.67;;;3.60;70.40;;;;;;4961402;29;20473;-73
2022/01/13 07:08:51;;;;;;;136.20;49.23;;;3.60;71.20;;;;;;4970792;29;20401;-73
2022/01/13 07:11:17;;;;;;;135.83;48.77;;;3.60;71.40;;;;;;4965094;28;20393;-74
2022/01/13 07:13:43;;;;;;;121.65;48.30;;;3.50;72.00;;;;;;4955577;29;20784;-73
2022/01/13 07:16:09;;;;;;;121.93;48.33;;;3.60;71.60;;;;;;4956392;29;20394;-73
2022/01/13 07:18:40;;;;;;;129.43;48.97;;;3.60;72.40;;;;;;4956044;29;20408;-73
2022/01/13 07:21:08;;;;;;;137.38;50.97;;;3.60;73.20;;;;;;4955051;28;20398;-73
2022/01/13 07:23:35;;;;;;;133.07;49.13;;;3.60;73.90;;;;;;4956004;29;20446;-73
2022/01/13 07:26:02;;;;;;;134.02;49.25;;;3.60;71.90;;;;;;4955042;28;20449;-74
2022/01/13 07:28:29;;;;;;;130.93;51.30;;;3.60;72.00;;;;;;4955585;29;20421;-73
2022/01/13 07:30:55;;;;;;;135.57;50.90;;;3.60;72.80;;;;;;4955908;29;20412;-74
2022/01/13 07:33:21;;;;;;;137.13;51.63;;;3.60;72.90;;;;;;4955225;29;20409;-72
2022/01/13 07:35:47;;;;;;;131.55;50.97;;;3.70;72.20;;;;;;4954249;29;20437;-72
2022/01/13 07:38:12;;;;;;;140.95;52.47;;;3.70;71.10;;;;;;4949735;28;20464;-73
2022/01/13 07:40:38;;;;;;;137.35;51.83;;;3.80;70.20;;;;;;4955391;29;20405;-72
2022/01/13 07:43:03;;;;;;;141.85;52.17;;;3.70;70.40;;;;;;4954031;28;20493;-73
2022/01/13 07:45:29;;;;;;;134.07;52.13;;;3.70;69.20;;;;;;4955649;29;20401;-72
2022/01/13 07:47:55;;;;;;;139.87;51.27;;;3.80;69.90;;;;;;4954837;28;20712;-73
2022/01/13 07:50:20;;;;;;;138.20;52.90;;;3.70;70.40;;;;;;4955487;29;20895;-71
2022/01/13 07:52:46;;;;;;;141.00;50.33;;;3.80;70.20;;;;;;4952182;28;20414;-73
2022/01/13 07:55:12;;;;;;;143.45;52.65;;;3.80;69.30;;;;;;4954347;28;20860;-72
2022/01/13 07:57:38;;;;;;;143.57;51.50;;;3.70;70.90;;;;;;4954731;29;20397;-72
2022/01/13 08:00:06;;;;;;;140.63;51.43;;;3.70;72.60;;;;;;4953692;28;20776;-73
2022/01/13 08:02:31;;;;;;;139.65;52.70;;;3.70;72.20;;;;;;4958042;28;20488;-74
2022/01/13 08:04:57;;;;;;;127.47;49.63;;;3.80;72.70;;;;;;4953615;28;20414;-73
2022/01/13 08:07:22;;;;;;;131.50;48.47;;;3.80;70.30;;;;;;4956392;29;20395;-74
2022/01/13 08:09:48;;;;;;;122.23;44.00;;;3.80;69.60;;;;;;4953728;29;20827;-72
2022/01/13 08:12:14;;;;;;;120.07;45.80;;;3.80;70.10;;;;;;4953624;29;20424;-71
2022/01/13 08:14:40;;;;;;;114.80;44.40;;;3.80;68.00;;;;;;4956135;28;20401;-71
2022/01/13 08:17:07;;;;;;;126.03;45.75;;;3.70;69.80;;;;;;4955854;28;20461;-72
2022/01/13 08:19:46;;;;;;;126.15;45.88;;;3.70;70.70;;;;;;4940938;29;20391;-71
2022/01/13 08:22:15;;;;;;;117.55;44.88;;;3.70;69.60;;;;;;4938445;29;20485;-72
2022/01/13 08:24:43;;;;;;;125.47;44.05;;;3.80;68.30;;;;;;4952598;29;20409;-74
2022/01/13 08:27:09;;;;;;;128.30;46.55;;;3.70;68.80;;;;;;4947704;28;20481;-72
2022/01/13 08:29:35;;;;;;;137.87;48.33;;;3.70;69.00;;;;;;4958068;28;20410;-71
2022/01/13 08:32:01;;;;;;;126.45;45.53;;;3.70;69.80;;;;;;4953200;28;20456;-74
2022/01/13 08:34:26;;;;;;;125.00;45.70;;;3.80;67.80;;;;;;4955951;28;20410;-74
2022/01/13 08:36:52;;;;;;;123.70;45.53;;;3.80;68.00;;;;;;4955038;29;20440;-75
2022/01/13 08:39:18;;;;;;;119.40;44.33;;;3.70;69.00;;;;;;4954801;29;20914;-72
2022/01/13 08:41:45;;;;;;;126.22;45.83;;;3.90;68.80;;;;;;4955107;28;20507;-72
2022/01/13 08:44:11;;;;;;;121.75;45.90;;;3.90;67.10;;;;;;4956110;28;20408;-75
2022/01/13 08:46:37;;;;;;;116.40;44.53;;;3.90;67.30;;;;;;4955887;29;20489;-73
2022/01/13 08:49:03;;;;;;;121.57;45.95;;;3.90;66.90;;;;;;4957802;28;20963;-74
2022/01/13 08:51:29;;;;;;;128.38;47.42;;;3.90;66.90;;;;;;4959048;29;20429;-74
2022/01/13 08:53:54;;;;;;;122.63;47.10;;;3.90;68.10;;;;;;4963498;28;20417;-73
2022/01/13 08:56:21;;;;;;;134.07;50.10;;;4.00;66.40;;;;;;4959370;29;20406;-75
2022/01/13 08:58:47;;;;;;;137.88;52.00;;;4.10;63.90;;;;;;4960522;29;20406;-74
2022/01/13 09:01:13;;;;;;;140.03;51.60;;;4.10;64.90;;;;;;4962004;29;20436;-74
2022/01/13 09:03:38;;;;;;;136.68;50.67;;;4.10;64.60;;;;;;4962487;28;20405;-74
2022/01/13 09:06:04;;;;;;;119.40;47.73;;;4.20;64.90;;;;;;4958867;29;20572;-74
2022/01/13 09:08:30;;;;;;;128.25;49.03;;;4.10;63.10;;;;;;4958001;29;20405;-73
2022/01/13 09:10:56;;;;;;;122.30;48.17;;;4.10;63.10;;;;;;4958163;29;20405;-73
2022/01/13 09:13:22;;;;;;;118.10;48.33;;;4.10;62.90;;;;;;4957276;29;20445;-74
2022/01/13 09:15:59;;;;;;;125.93;49.00;;;4.30;62.10;;;;;;4958853;29;20396;-74
2022/01/13 09:19:08;;;;;;;129.85;49.17;;;4.20;61.80;;;;;;4959135;29;20429;-75
2022/01/13 09:21:19;;;;;;;128.32;50.30;;;4.30;61.70;;;;;;4957388;28;20398;-74
2022/01/13 09:23:45;;;;;;;141.83;55.00;;;4.30;61.70;;;;;;4958222;29;20402;-74
2022/01/13 09:26:11;;;;;;;132.07;51.03;;;4.40;61.30;;;;;;4956815;29;20441;-75
2022/01/13 09:28:36;;;;;;;146.43;52.87;;;4.30;60.80;;;;;;4955651;29;20437;-74
2022/01/13 09:31:03;;;;;;;137.57;54.08;;;4.30;61.10;;;;;;4958300;29;20401;-73
2022/01/13 09:33:29;;;;;;;142.88;55.40;;;4.40;60.60;;;;;;4956569;29;20425;-74
2022/01/13 09:35:54;;;;;;;137.23;53.97;;;4.50;59.40;;;;;;4957885;28;20759;-74
2022/01/13 09:38:20;;;;;;;142.23;52.93;;;4.50;59.10;;;;;;4954139;28;20456;-73
2022/01/13 09:40:48;;;;;;;148.63;54.80;;;4.60;59.00;;;;;;4954060;28;20457;-75
2022/01/13 09:43:14;;;;;;;155.75;54.90;;;4.50;59.10;;;;;;4953166;29;20405;-74
2022/01/13 09:45:40;;;;;;;137.32;53.28;;;4.50;60.10;;;;;;4954728;28;20452;-73
2022/01/13 09:48:06;;;;;;;132.82;53.20;;;4.60;60.50;;;;;;4953339;28;20810;-73
2022/01/13 09:50:32;;;;;;;129.90;50.25;;;4.60;60.10;;;;;;4952915;28;20394;-74
2022/01/13 09:52:58;;;;;;;134.60;51.63;;;4.60;58.30;;;;;;4956882;28;20410;-74
2022/01/13 09:55:24;;;;;;;142.13;52.47;;;4.70;58.90;;;;;;4973251;28;20399;-74
2022/01/13 09:57:51;;;;;;;131.87;50.37;;;4.70;59.60;;;;;;4954572;28;20453;-73
2022/01/13 10:00:22;;;;;;;138.07;50.28;;;4.90;58.10;;;;;;4959106;28;20438;-73
2022/01/13 10:02:48;;;;;;;123.22;49.83;;;4.90;56.90;;;;;;4971974;28;20397;-73
2022/01/13 10:05:18;;;;;;;130.80;50.17;;;5.00;56.60;;;;;;4969090;28;20456;-73
2022/01/13 10:07:45;;;;;;;125.22;46.67;;;5.10;54.40;;;;;;4965721;28;20401;-73
2022/01/13 10:10:16;;;;;;;125.07;48.65;;;5.10;54.00;;;;;;4972867;29;20401;-74
2022/01/13 10:12:45;;;;;;;123.10;49.88;;;5.10;53.70;;;;;;4947671;29;20788;-74
2022/01/13 10:18:09;;;;;;;121.85;48.30;;;5.20;53.60;;;;;;4965006;29;20456;-75
2022/01/13 10:20:34;;;;;;;122.70;49.30;;;5.30;53.20;;;;;;4971590;29;20385;-75
2022/01/13 10:23:11;;;;;;;122.63;48.87;;;5.30;51.60;;;;;;4966943;28;20410;-74
2022/01/13 10:25:43;;;;;;;121.10;48.90;;;5.30;52.10;;;;;;4962944;28;20410;-74
2022/01/13 10:28:21;;;;;;;120.45;48.25;;;5.30;52.10;;;;;;4958407;28;20914;-74
2022/01/13 10:30:49;;;;;;;125.37;49.67;;;5.30;52.30;;;;;;4958892;28;20413;-74
2022/01/13 10:33:18;;;;;;;122.85;47.15;;;5.30;51.80;;;;;;4968825;28;20497;-75
2022/01/13 10:35:44;;;;;;;121.45;47.45;;;5.40;51.30;;;;;;4972420;28;20393;-74
2022/01/13 10:38:13;;;;;;;119.47;48.60;;;5.40;51.90;;;;;;4971897;29;20412;-76
2022/01/13 10:40:41;;;;;;;121.15;46.47;;;5.30;52.10;;;;;;4962376;28;20484;-76
2022/01/13 10:43:10;;;;;;;112.68;44.20;;;5.40;51.60;;;;;;4960508;28;20816;-75
2022/01/13 10:45:55;;;;;;;104.25;42.60;;;5.50;49.50;;;;;;4958154;29;20437;-73
2022/01/13 10:48:24;;;;;;;107.60;42.13;;;5.30;50.90;;;;;;4958590;28;20976;-74
2022/01/13 10:50:59;;;;;;;107.25;42.35;;;5.30;50.90;;;;;;4959415;28;20417;-75
2022/01/13 10:53:33;;;;;;;112.55;44.53;;;5.30;50.20;;;;;;4961757;28;20859;-74
2022/01/13 10:56:02;;;;;;;118.63;43.97;;;5.30;51.10;;;;;;4958024;28;20390;-75
2022/01/13 10:58:41;;;;;;;119.47;44.65;;;5.20;51.70;;;;;;4958573;28;20424;-74
2022/01/13 11:01:09;;;;;;;122.88;45.97;;;5.20;52.70;;;;;;4958849;28;20402;-75
2022/01/13 11:03:39;;;;;;;114.53;44.55;;;5.20;52.80;;;;;;4958663;28;20492;-74
2022/01/13 11:06:08;;;;;;;110.78;43.50;;;5.30;52.30;;;;;;4959450;28;20990;-76
2022/01/13 11:08:41;;;;;;;119.63;46.03;;;5.40;52.10;;;;;;4954154;28;20498;-73
2022/01/13 11:11:16;;;;;;;123.72;46.90;;;5.50;51.60;;;;;;4940368;29;20761;-75
2022/01/13 11:13:54;;;;;;;118.63;44.50;;;5.50;50.60;;;;;;4947925;29;20433;-74
2022/01/13 11:16:23;;;;;;;118.07;45.13;;;5.40;51.10;;;;;;4954447;29;20468;-73
2022/01/13 11:18:49;;;;;;;123.15;44.17;;;5.40;51.00;;;;;;4955915;29;20398;-74
2022/01/13 11:21:15;;;;;;;117.13;44.28;;;5.50;50.60;;;;;;4956162;29;20389;-74
2022/01/13 11:23:44;;;;;;;113.95;44.90;;;5.40;51.10;;;;;;4955325;29;20863;-74
2022/01/13 11:26:12;;;;;;;103.15;42.85;;;5.50;51.40;;;;;;4954335;29;20402;-75
2022/01/13 11:28:39;;;;;;;112.27;44.17;;;5.50;50.90;;;;;;4955753;28;20394;-75
2022/01/13 11:31:07;;;;;;;105.15;44.58;;;5.60;50.70;;;;;;4954494;29;20399;-75
2022/01/13 11:33:35;;;;;;;113.60;43.63;;;5.60;50.30;;;;;;4955005;28;20410;-74
2022/01/13 11:36:01;;;;;;;108.40;42.03;;;5.50;50.20;;;;;;4955319;29;20449;-75
2022/01/13 11:38:28;;;;;;;108.70;42.50;;;5.80;48.70;;;;;;4954716;28;20394;-75
2022/01/13 11:41:07;;;;;;;108.65;43.10;;;5.70;49.00;;;;;;4956243;28;21018;-73
2022/01/13 11:43:34;;;;;;;127.85;43.22;;;5.70;49.70;;;;;;4956037;29;20815;-72
2022/01/13 11:46:21;;;;;;;105.47;41.05;;;5.70;49.10;;;;;;4955238;28;20922;-75
2022/01/13 11:49:33;;;;;;;110.88;43.20;;;5.70;49.80;;;;;;4961099;29;20414;-74
2022/01/13 11:52:02;;;;;;;111.38;43.20;;;5.90;49.50;;;;;;4959000;29;20754;-72
2022/01/13 11:54:33;;;;;;;105.20;42.97;;;5.80;49.20;;;;;;4956263;28;20465;-76
2022/01/13 11:57:21;;;;;;;96.78;39.70;;;5.90;49.00;;;;;;4954902;29;20386;-72
2022/01/13 11:59:56;;;;;;;101.18;40.53;;;5.90;48.30;;;;;;4954290;29;20394;-72
2022/01/13 12:02:34;;;;;;;101.30;40.80;;;6.00;48.60;;;;;;4955586;29;20405;-73
2022/01/13 12:05:14;;;;;;;107.57;42.78;;;6.00;48.50;;;;;;4956100;29;20409;-72
2022/01/13 12:07:55;;;;;;;105.82;40.78;;;6.00;48.40;;;;;;4955552;29;20390;-73
2022/01/13 12:10:20;;;;;;;106.50;42.10;;;6.00;48.10;;;;;;4954511;29;20482;-76
2022/01/13 12:12:47;;;;;;;97.43;40.42;;;5.90;48.80;;;;;;4956965;29;20425;-76
2022/01/13 12:15:17;;;;;;;102.07;40.78;;;6.00;48.30;;;;;;4955609;28;20404;-75
2022/01/13 12:17:59;;;;;;;103.35;39.92;;;6.00;47.80;;;;;;4956803;28;20442;-76
2022/01/13 12:20:30;;;;;;;83.43;37.00;;;6.10;46.80;;;;;;4954352;28;20406;-76
2022/01/13 12:23:04;;;;;;;91.28;36.35;;;5.90;45.70;;;;;;4951694;29;20394;-75
2022/01/13 12:25:32;;;;;;;91.20;35.65;;;6.00;46.20;;;;;;4939605;29;20432;-75
2022/01/13 12:28:10;;;;;;;85.30;36.17;;;6.00;45.20;;;;;;4954110;29;20477;-74
2022/01/13 12:30:36;;;;;;;86.17;36.43;;;6.00;45.00;;;;;;4953628;28;20815;-74
2022/01/13 12:33:07;;;;;;;76.47;31.58;;;6.10;43.90;;;;;;4954534;28;20433;-75
2022/01/13 12:35:39;;;;;;;73.35;32.20;;;6.10;43.40;;;;;;4954978;29;20771;-75
2022/01/13 12:38:07;;;;;;;71.25;31.38;;;6.10;42.30;;;;;;4953105;29;20390;-76
2022/01/13 12:40:40;;;;;;;69.93;30.67;;;6.10;41.60;;;;;;4953777;29;20807;-75
2022/01/13 12:43:48;;;;;;;74.25;30.63;;;6.20;41.30;;;;;;4953777;29;20433;-75
2022/01/13 12:46:17;;;;;;;77.53;32.15;;;6.30;40.70;;;;;;4949162;29;20407;-75
2022/01/13 12:48:46;;;;;;;85.65;32.80;;;6.20;41.50;;;;;;4945707;29;20413;-75
2022/01/13 12:51:19;;;;;;;74.45;31.35;;;6.20;42.60;;;;;;4953135;29;20430;-75